Time;durP1;ratioP1;P1;durP2;ratioP2;P2;SDS_P1;SDS_P2;PMS_P1;PMS_P2;Temp;Humidity;BMP_temperature;BMP_pressure;BME280_temperature;BME280_humidity;BME280_pressure;Samples;Min_cycle;Max_cycle;Signal;HPM_P1;HPM_P2
2022/12/23 00:02:21;;;;;;;59.00;18.37;;;4.00;93.30;;;;;;6153897;23;20232;-77
2022/12/23 00:04:50;;;;;;;61.10;19.27;;;4.00;93.30;;;;;;6153826;23;20472;-76
2022/12/23 00:07:21;;;;;;;62.57;19.50;;;4.00;93.30;;;;;;6150906;23;20668;-76
2022/12/23 00:09:49;;;;;;;58.77;19.83;;;4.00;93.30;;;;;;6154199;23;20674;-76
2022/12/23 00:15:09;;;;;;;59.53;19.40;;;4.00;93.30;;;;;;6153177;23;20164;-76
2022/12/23 00:17:41;;;;;;;63.17;18.03;;;3.90;93.30;;;;;;6154455;23;20317;-77
2022/12/23 00:20:12;;;;;;;54.78;20.23;;;3.90;93.40;;;;;;6152304;23;20772;-76
2022/12/23 00:28:14;;;;;;;57.87;17.97;;;3.90;93.40;;;;;;6153078;23;20629;-76
2022/12/23 00:30:48;;;;;;;56.50;17.70;;;3.90;93.50;;;;;;6151972;23;20160;-76
2022/12/23 00:33:27;;;;;;;56.63;20.85;;;3.90;93.50;;;;;;6153018;23;20386;-76
2022/12/23 00:35:58;;;;;;;61.47;20.57;;;3.90;93.60;;;;;;6153343;23;20157;-77
2022/12/23 00:44:04;;;;;;;68.73;21.07;;;3.90;93.60;;;;;;6153300;23;20166;-76
2022/12/23 00:46:34;;;;;;;71.35;23.20;;;3.90;93.60;;;;;;6151782;23;20391;-76
2022/12/23 00:52:00;;;;;;;62.43;19.67;;;3.90;93.90;;;;;;6153747;23;20590;-76
2022/12/23 00:54:30;;;;;;;59.67;19.17;;;3.90;93.90;;;;;;6153483;23;20207;-75
2022/12/23 00:56:59;;;;;;;49.53;17.27;;;3.80;93.80;;;;;;6153105;23;20640;-76
2022/12/23 00:59:27;;;;;;;67.25;21.98;;;3.80;93.80;;;;;;6152619;23;20519;-76
2022/12/23 01:07:31;;;;;;;54.13;18.53;;;3.80;93.80;;;;;;6153353;23;20161;-76
2022/12/23 01:10:00;;;;;;;50.97;17.90;;;3.80;94.00;;;;;;6152567;23;20220;-76
2022/12/23 01:12:28;;;;;;;61.60;20.97;;;3.80;93.90;;;;;;6151945;23;20255;-76
2022/12/23 01:15:08;;;;;;;60.93;20.53;;;3.80;93.90;;;;;;6150987;23;20176;-77
2022/12/23 01:17:38;;;;;;;63.00;20.80;;;3.80;93.90;;;;;;6153819;23;20168;-76
2022/12/23 01:20:11;;;;;;;61.10;18.10;;;3.80;93.90;;;;;;6152200;23;20186;-76
2022/12/23 01:22:44;;;;;;;59.37;20.10;;;3.70;93.80;;;;;;6154604;23;20518;-78
2022/12/23 01:25:13;;;;;;;46.50;16.50;;;3.70;93.90;;;;;;6150147;23;20159;-77
2022/12/23 01:27:41;;;;;;;46.87;17.23;;;3.70;93.80;;;;;;6150761;23;20238;-76
2022/12/23 01:30:12;;;;;;;52.43;18.63;;;3.70;93.80;;;;;;6152821;23;20231;-75
2022/12/23 01:32:42;;;;;;;52.63;17.63;;;3.60;93.80;;;;;;6154108;23;20176;-75
2022/12/23 01:35:10;;;;;;;49.53;16.40;;;3.60;93.80;;;;;;6151572;23;20227;-76
2022/12/23 01:37:50;;;;;;;50.33;18.37;;;3.50;93.90;;;;;;6152197;23;20176;-77
2022/12/23 01:40:18;;;;;;;54.43;17.93;;;3.50;94.00;;;;;;6156264;23;20156;-75
2022/12/23 01:42:48;;;;;;;49.63;17.20;;;3.50;94.00;;;;;;6155940;23;20503;-75
2022/12/23 01:45:21;;;;;;;58.17;17.73;;;3.50;94.00;;;;;;6155621;23;20219;-77
2022/12/23 01:47:55;;;;;;;42.07;15.70;;;3.50;94.00;;;;;;6155268;23;20163;-75
2022/12/23 01:50:28;;;;;;;57.63;20.50;;;3.50;94.10;;;;;;6154136;23;20872;-76
2022/12/23 01:53:03;;;;;;;51.73;16.73;;;3.50;94.20;;;;;;6155651;23;20670;-75
2022/12/23 01:55:38;;;;;;;49.50;16.50;;;3.50;94.20;;;;;;6155642;23;20180;-76
2022/12/23 01:58:12;;;;;;;41.40;15.63;;;3.50;94.20;;;;;;6154088;23;20623;-75
2022/12/23 02:03:44;;;;;;;45.50;16.07;;;3.50;94.50;;;;;;6156564;23;20251;-76
2022/12/23 02:09:18;;;;;;;44.30;16.27;;;3.50;94.10;;;;;;6155165;23;20187;-76
2022/12/23 02:12:23;;;;;;;47.03;15.97;;;3.60;94.10;;;;;;6156273;23;20156;-76
2022/12/23 02:18:00;;;;;;;51.87;17.13;;;3.50;94.00;;;;;;6154965;23;20656;-77
2022/12/23 02:21:05;;;;;;;46.07;16.77;;;3.60;94.10;;;;;;6153977;23;20157;-75
2022/12/23 02:24:09;;;;;;;50.83;18.67;;;3.60;94.10;;;;;;6151712;23;20160;-75
2022/12/23 02:27:10;;;;;;;50.30;17.83;;;3.60;94.00;;;;;;6155066;23;20160;-76
2022/12/23 02:30:14;;;;;;;51.13;20.02;;;3.60;94.00;;;;;;6153495;23;20481;-75
2022/12/23 02:33:01;;;;;;;58.00;18.00;;;3.50;94.50;;;;;;6153904;23;20513;-76
2022/12/23 02:35:36;;;;;;;51.03;16.07;;;3.50;94.20;;;;;;6103385;23;20177;-76
2022/12/23 02:38:10;;;;;;;40.13;15.90;;;3.50;94.20;;;;;;6154472;23;20215;-77
2022/12/23 02:40:43;;;;;;;47.37;15.70;;;3.50;94.20;;;;;;6154048;23;20165;-75
2022/12/23 02:43:16;;;;;;;48.23;17.17;;;3.50;94.20;;;;;;6154851;23;20165;-76
2022/12/23 02:45:49;;;;;;;51.00;16.37;;;3.60;94.20;;;;;;6155373;23;20219;-76
2022/12/23 02:48:27;;;;;;;44.40;15.40;;;3.60;94.20;;;;;;6152917;23;20161;-76
2022/12/23 02:51:01;;;;;;;46.97;16.13;;;3.50;94.10;;;;;;6154278;23;20642;-76
2022/12/23 02:53:33;;;;;;;42.67;15.30;;;3.60;94.20;;;;;;6154742;23;20161;-77
2022/12/23 02:56:07;;;;;;;45.43;15.97;;;3.60;94.10;;;;;;6154942;23;20192;-76
2022/12/23 02:58:40;;;;;;;53.67;17.77;;;3.60;94.10;;;;;;6155667;23;20176;-76
2022/12/23 03:01:10;;;;;;;48.93;15.77;;;3.60;94.10;;;;;;6155334;23;20157;-76
2022/12/23 03:03:41;;;;;;;52.10;17.67;;;3.60;94.10;;;;;;6155332;23;20195;-76
2022/12/23 03:06:19;;;;;;;45.03;16.97;;;3.60;94.20;;;;;;6153019;23;20568;-76
2022/12/23 03:08:49;;;;;;;46.73;18.20;;;3.60;94.20;;;;;;6154317;23;20682;-75
2022/12/23 03:11:18;;;;;;;44.53;15.27;;;3.60;94.20;;;;;;6154330;23;20539;-76
2022/12/23 03:14:08;;;;;;;37.40;14.40;;;3.60;94.10;;;;;;6154573;23;20177;-77
2022/12/23 03:16:45;;;;;;;40.43;15.13;;;3.60;94.10;;;;;;6155161;23;20268;-76
2022/12/23 03:19:24;;;;;;;44.70;15.87;;;3.60;94.10;;;;;;6154817;23;20156;-77
2022/12/23 03:21:57;;;;;;;40.47;15.63;;;3.60;94.10;;;;;;6156014;23;20182;-76
2022/12/23 03:24:39;;;;;;;41.60;15.60;;;3.50;94.10;;;;;;6154096;23;20161;-77
2022/12/23 03:27:15;;;;;;;44.53;15.60;;;3.50;94.10;;;;;;6155832;23;20163;-76
2022/12/23 03:29:52;;;;;;;37.07;15.97;;;3.50;94.10;;;;;;6155436;23;20251;-76
2022/12/23 03:32:29;;;;;;;42.13;15.30;;;3.50;94.10;;;;;;6155780;23;20156;-77
2022/12/23 03:35:09;;;;;;;53.63;19.23;;;3.50;94.10;;;;;;6149910;23;20395;-77
2022/12/23 03:37:44;;;;;;;47.37;16.27;;;3.50;94.50;;;;;;6153551;23;20219;-76
2022/12/23 03:40:21;;;;;;;36.67;15.93;;;3.60;94.50;;;;;;6155333;23;20191;-76
2022/12/23 03:43:01;;;;;;;44.93;17.77;;;3.60;94.50;;;;;;6153175;23;20177;-77
2022/12/23 03:45:37;;;;;;;40.43;16.40;;;3.70;94.40;;;;;;6153551;23;20160;-76
2022/12/23 03:48:13;;;;;;;43.27;15.83;;;3.70;94.30;;;;;;6153266;23;20167;-76
2022/12/23 03:50:44;;;;;;;46.47;16.03;;;3.70;94.20;;;;;;6153836;23;20180;-76
2022/12/23 03:53:17;;;;;;;43.67;16.00;;;3.70;94.20;;;;;;6154961;23;20537;-77
2022/12/23 03:55:51;;;;;;;48.83;16.97;;;3.70;94.10;;;;;;6154584;23;20196;-76
2022/12/23 03:58:34;;;;;;;42.97;16.67;;;3.70;94.00;;;;;;6153823;23;20162;-76
2022/12/23 04:01:10;;;;;;;53.07;17.60;;;3.70;94.00;;;;;;6153622;23;20164;-76
2022/12/23 04:03:54;;;;;;;49.20;17.70;;;3.70;94.10;;;;;;6153544;23;20156;-77
2022/12/23 04:06:27;;;;;;;46.97;16.60;;;3.70;94.10;;;;;;6152026;23;20243;-77
2022/12/23 04:08:57;;;;;;;58.40;17.60;;;3.70;94.40;;;;;;6154596;23;20163;-76
2022/12/23 04:11:28;;;;;;;47.50;15.97;;;3.60;94.00;;;;;;6154072;23;20205;-76
2022/12/23 04:13:57;;;;;;;42.97;16.17;;;3.70;94.00;;;;;;6154009;23;20191;-76
2022/12/23 04:16:25;;;;;;;41.67;16.07;;;3.60;94.00;;;;;;6153502;23;20173;-76
2022/12/23 04:18:54;;;;;;;49.00;16.80;;;3.60;94.00;;;;;;6153752;23;20255;-75
2022/12/23 04:21:26;;;;;;;48.70;16.70;;;3.60;94.00;;;;;;6152584;23;20641;-76
2022/12/23 04:23:55;;;;;;;48.27;17.00;;;3.60;94.00;;;;;;6153390;23;20211;-76
2022/12/23 04:26:23;;;;;;;47.87;16.63;;;3.60;94.10;;;;;;6153572;23;20183;-76
2022/12/23 04:28:51;;;;;;;41.70;15.50;;;3.60;94.10;;;;;;6152095;23;20176;-76
2022/12/23 04:31:20;;;;;;;43.30;15.63;;;3.60;94.10;;;;;;6153784;23;20199;-76
2022/12/23 04:33:51;;;;;;;40.00;15.87;;;3.60;94.10;;;;;;6152647;23;20184;-77
2022/12/23 04:36:20;;;;;;;48.90;18.20;;;3.50;94.10;;;;;;6151196;23;20183;-75
2022/12/23 04:38:49;;;;;;;48.17;16.30;;;3.50;94.10;;;;;;6153554;23;20556;-76
2022/12/23 04:41:18;;;;;;;43.40;16.43;;;3.50;94.20;;;;;;6153908;23;20227;-75
2022/12/23 04:43:46;;;;;;;42.63;16.43;;;3.50;94.20;;;;;;6154596;23;20184;-76
2022/12/23 04:46:20;;;;;;;46.90;16.20;;;3.50;94.20;;;;;;6151287;23;20171;-77
2022/12/23 04:48:48;;;;;;;52.80;17.87;;;3.50;94.20;;;;;;6152095;23;20222;-76
2022/12/23 04:51:22;;;;;;;54.53;19.53;;;3.50;94.20;;;;;;6152609;23;20191;-76
2022/12/23 04:53:55;;;;;;;48.43;18.20;;;3.50;94.30;;;;;;6153161;23;20167;-76
2022/12/23 04:56:23;;;;;;;51.92;19.77;;;3.50;94.30;;;;;;6153613;23;20464;-76
2022/12/23 04:58:51;;;;;;;55.57;18.80;;;3.50;94.40;;;;;;6153925;23;20267;-76
2022/12/23 05:01:20;;;;;;;51.90;17.87;;;3.50;94.40;;;;;;6154255;23;20590;-77
2022/12/23 05:03:48;;;;;;;57.63;18.53;;;3.50;94.40;;;;;;6154700;23;20238;-77
2022/12/23 05:06:16;;;;;;;55.87;19.07;;;3.50;94.50;;;;;;6154551;23;20240;-77
2022/12/23 05:08:45;;;;;;;58.07;18.77;;;3.50;94.50;;;;;;6151688;23;20179;-77
2022/12/23 05:11:14;;;;;;;52.03;18.07;;;3.50;94.50;;;;;;6154680;23;20568;-77
2022/12/23 05:13:43;;;;;;;51.60;17.93;;;3.50;94.50;;;;;;6154044;23;20199;-77
2022/12/23 05:16:11;;;;;;;47.23;16.97;;;3.50;94.50;;;;;;6154555;23;20184;-77
2022/12/23 05:18:42;;;;;;;46.73;18.30;;;3.60;94.50;;;;;;6154003;23;20176;-76
2022/12/23 05:21:14;;;;;;;41.10;17.07;;;3.60;94.50;;;;;;6155169;23;20164;-76
2022/12/23 05:23:42;;;;;;;43.87;17.23;;;3.60;94.50;;;;;;6153319;23;20183;-76
2022/12/23 05:26:10;;;;;;;52.13;19.23;;;3.70;94.50;;;;;;6153242;23;20636;-76
2022/12/23 05:28:41;;;;;;;45.97;17.13;;;3.70;94.50;;;;;;6152346;23;20630;-76
2022/12/23 05:31:10;;;;;;;47.27;17.77;;;3.70;94.50;;;;;;6153240;23;20495;-76
2022/12/23 05:33:39;;;;;;;51.33;17.80;;;3.80;94.50;;;;;;6151501;23;20557;-76
2022/12/23 05:36:09;;;;;;;49.15;19.80;;;3.80;94.50;;;;;;6153827;23;20390;-77
2022/12/23 05:38:37;;;;;;;45.83;17.80;;;3.80;94.50;;;;;;6152830;23;20180;-76
2022/12/23 05:41:08;;;;;;;51.90;18.70;;;3.80;94.40;;;;;;6153586;23;20172;-76
2022/12/23 05:43:37;;;;;;;45.43;16.97;;;3.80;94.30;;;;;;6152853;23;20172;-76
2022/12/23 05:46:09;;;;;;;53.00;18.57;;;3.90;94.30;;;;;;6153935;23;20172;-75
2022/12/23 05:48:37;;;;;;;45.87;17.20;;;3.90;94.30;;;;;;6152962;23;20157;-77
2022/12/23 05:51:06;;;;;;;45.83;17.63;;;3.90;94.20;;;;;;6153823;23;20529;-77
2022/12/23 05:53:36;;;;;;;44.97;17.07;;;3.90;94.20;;;;;;6152076;23;20183;-77
2022/12/23 05:56:06;;;;;;;48.60;18.37;;;3.80;94.20;;;;;;6154875;23;20172;-77
2022/12/23 05:58:34;;;;;;;47.70;18.17;;;3.90;94.20;;;;;;6153060;23;20215;-77
2022/12/23 06:01:03;;;;;;;45.80;16.87;;;3.80;94.10;;;;;;6153767;23;20630;-76
2022/12/23 06:03:33;;;;;;;47.37;17.93;;;3.80;94.20;;;;;;6154219;23;20245;-77
2022/12/23 06:06:06;;;;;;;43.97;17.17;;;3.80;94.20;;;;;;6153782;23;20195;-77
2022/12/23 06:08:35;;;;;;;43.43;16.33;;;3.80;94.20;;;;;;6150849;23;20242;-77
2022/12/23 06:11:07;;;;;;;46.27;18.07;;;3.70;94.10;;;;;;6153130;23;20270;-77
2022/12/23 06:13:36;;;;;;;53.08;20.75;;;3.80;94.20;;;;;;6152668;23;20390;-76
2022/12/23 06:16:04;;;;;;;46.97;16.83;;;3.70;94.20;;;;;;6152511;23;20181;-76
2022/12/23 06:18:34;;;;;;;55.03;19.07;;;3.80;94.30;;;;;;6153806;23;20252;-77
2022/12/23 06:21:03;;;;;;;50.57;19.03;;;3.80;94.30;;;;;;6151626;23;20231;-76
2022/12/23 06:23:35;;;;;;;54.53;18.60;;;3.80;94.30;;;;;;6150645;23;20630;-79
2022/12/23 06:26:06;;;;;;;53.60;19.13;;;3.80;94.30;;;;;;6155250;23;20160;-78
2022/12/23 06:28:34;;;;;;;50.50;18.73;;;3.80;94.30;;;;;;6156028;23;20179;-77
2022/12/23 06:31:03;;;;;;;46.70;18.50;;;3.80;94.20;;;;;;6152815;23;20204;-77
2022/12/23 06:36:23;;;;;;;52.77;18.30;;;3.80;94.30;;;;;;6151685;23;20187;-77
2022/12/23 06:38:51;;;;;;;55.07;19.00;;;3.90;94.30;;;;;;6153083;23;20180;-76
2022/12/23 06:41:19;;;;;;;49.43;19.83;;;3.90;94.40;;;;;;6153793;23;20172;-76
2022/12/23 06:43:51;;;;;;;53.07;19.93;;;3.90;94.40;;;;;;6154548;23;20172;-78
2022/12/23 06:46:22;;;;;;;54.10;20.27;;;3.90;94.30;;;;;;6157051;23;20168;-77
2022/12/23 06:49:16;;;;;;;55.37;18.90;;;4.00;94.40;;;;;;6154861;23;20192;-74
2022/12/23 06:51:44;;;;;;;54.10;20.77;;;4.00;94.40;;;;;;6152248;23;20580;-74
2022/12/23 06:54:27;;;;;;;54.43;21.30;;;4.00;94.30;;;;;;6154029;23;20227;-78
2022/12/23 06:57:28;;;;;;;52.47;20.07;;;4.10;94.30;;;;;;6151437;23;20582;-74
2022/12/23 06:59:56;;;;;;;49.37;19.00;;;4.10;94.30;;;;;;6031369;23;20220;-73
2022/12/23 07:02:25;;;;;;;45.23;17.67;;;4.10;94.40;;;;;;6126999;23;20219;-78
2022/12/23 07:04:55;;;;;;;52.10;19.57;;;4.10;94.30;;;;;;6153682;23;20512;-77
2022/12/23 07:07:23;;;;;;;53.67;19.83;;;4.20;94.60;;;;;;6155323;23;20227;-77
2022/12/23 07:09:52;;;;;;;54.27;21.40;;;4.20;94.30;;;;;;6154620;23;20169;-77
2022/12/23 07:12:20;;;;;;;52.53;22.00;;;4.20;94.20;;;;;;6153800;23;20196;-77
2022/12/23 07:14:48;;;;;;;55.20;23.27;;;4.20;94.20;;;;;;6153039;23;20173;-78
2022/12/23 07:17:17;;;;;;;48.43;20.77;;;4.20;94.20;;;;;;6078872;23;20823;-77
2022/12/23 07:19:45;;;;;;;48.40;17.93;;;4.30;94.20;;;;;;6154132;23;20254;-77
2022/12/23 07:22:15;;;;;;;49.13;20.97;;;4.20;94.00;;;;;;6156031;23;20176;-77
2022/12/23 07:24:43;;;;;;;48.13;21.40;;;4.30;94.10;;;;;;6153175;23;20462;-77
2022/12/23 07:27:11;;;;;;;47.47;19.53;;;4.30;94.20;;;;;;6151038;23;20254;-77
2022/12/23 07:29:40;;;;;;;50.43;19.07;;;4.30;94.20;;;;;;6152595;23;20203;-77
2022/12/23 07:32:08;;;;;;;44.60;20.30;;;4.30;94.20;;;;;;6155225;23;20188;-76
2022/12/23 07:34:36;;;;;;;42.83;18.70;;;4.40;94.20;;;;;;6154581;23;20180;-78
2022/12/23 07:37:05;;;;;;;47.25;18.48;;;4.40;94.10;;;;;;6152350;23;20597;-77
2022/12/23 07:39:35;;;;;;;38.30;17.07;;;4.50;94.20;;;;;;6153950;23;20239;-77
2022/12/23 07:42:03;;;;;;;43.50;18.70;;;4.50;94.10;;;;;;6153773;23;20211;-77
2022/12/23 07:44:52;;;;;;;45.07;18.80;;;4.60;94.20;;;;;;6153559;23;20513;-77
2022/12/23 07:47:20;;;;;;;42.80;18.37;;;4.60;94.10;;;;;;6154017;23;20231;-77
2022/12/23 07:49:51;;;;;;;43.17;18.67;;;4.60;93.90;;;;;;6153843;23;20178;-76
2022/12/23 07:52:20;;;;;;;53.13;23.83;;;4.70;94.00;;;;;;6152716;23;20399;-77
2022/12/23 07:54:50;;;;;;;45.97;20.63;;;4.70;94.10;;;;;;6152618;23;20160;-77
2022/12/23 07:57:18;;;;;;;49.50;20.50;;;4.60;94.00;;;;;;6152204;23;20181;-77
2022/12/23 07:59:51;;;;;;;51.17;19.87;;;4.70;94.40;;;;;;6154668;23;20678;-77
2022/12/23 08:02:23;;;;;;;42.63;20.87;;;4.70;93.90;;;;;;6153895;23;20534;-77
2022/12/23 08:04:52;;;;;;;52.90;22.67;;;4.70;93.80;;;;;;6153578;23;20918;-77
2022/12/23 08:07:24;;;;;;;47.00;20.33;;;4.70;93.90;;;;;;6152561;23;20319;-76
2022/12/23 08:09:57;;;;;;;49.23;19.20;;;4.70;93.80;;;;;;6154222;23;20243;-76
2022/12/23 08:12:25;;;;;;;47.07;19.83;;;4.80;93.90;;;;;;6152881;23;20181;-78
2022/12/23 08:14:53;;;;;;;49.90;19.00;;;4.70;93.70;;;;;;6154493;23;20174;-77
2022/12/23 08:17:25;;;;;;;52.03;22.60;;;4.80;93.80;;;;;;6153655;23;20934;-78
2022/12/23 08:19:54;;;;;;;43.47;20.40;;;4.80;93.80;;;;;;6153190;23;20172;-78
2022/12/23 08:22:22;;;;;;;44.07;20.20;;;4.80;93.70;;;;;;6151942;23;20495;-77
2022/12/23 08:24:51;;;;;;;42.30;19.10;;;4.80;93.70;;;;;;6151940;23;20628;-77
2022/12/23 08:27:21;;;;;;;42.40;19.20;;;4.80;93.60;;;;;;6154215;23;20176;-77
2022/12/23 08:29:49;;;;;;;49.50;19.27;;;4.80;93.70;;;;;;6152464;23;20485;-76
2022/12/23 08:32:38;;;;;;;43.80;19.57;;;4.80;93.60;;;;;;6150022;23;20251;-78
2022/12/23 08:35:09;;;;;;;47.13;19.83;;;4.80;93.60;;;;;;6152781;23;20173;-74
2022/12/23 08:37:38;;;;;;;49.60;20.53;;;4.90;93.70;;;;;;6153053;23;20177;-73
2022/12/23 08:40:07;;;;;;;45.63;20.70;;;4.90;93.60;;;;;;6153274;23;20557;-73
2022/12/23 08:42:37;;;;;;;43.03;20.10;;;4.90;93.50;;;;;;6148796;23;20175;-73
2022/12/23 08:45:31;;;;;;;45.63;19.73;;;4.90;93.50;;;;;;6151842;23;20176;-75
2022/12/23 08:48:10;;;;;;;50.80;20.57;;;4.90;93.60;;;;;;6152952;23;20263;-74
2022/12/23 08:50:39;;;;;;;43.07;19.33;;;4.90;93.70;;;;;;6154893;23;20535;-77
2022/12/23 08:53:10;;;;;;;45.97;19.80;;;5.00;93.80;;;;;;6153198;23;20662;-77
2022/12/23 08:55:39;;;;;;;44.37;19.37;;;5.00;94.20;;;;;;6153026;23;20212;-77
2022/12/23 08:58:13;;;;;;;51.73;20.83;;;5.00;93.80;;;;;;6154085;23;20229;-77
2022/12/23 09:00:41;;;;;;;48.13;21.00;;;5.10;93.80;;;;;;6153419;23;20205;-78
2022/12/23 09:03:09;;;;;;;42.77;20.47;;;5.10;93.80;;;;;;6151931;23;20561;-77
2022/12/23 09:05:41;;;;;;;53.57;22.10;;;5.10;93.80;;;;;;6152152;23;20274;-77
2022/12/23 09:08:10;;;;;;;48.07;21.07;;;5.20;93.70;;;;;;6151935;23;20227;-77
2022/12/23 09:10:41;;;;;;;50.28;23.17;;;5.20;93.70;;;;;;6152187;23;20655;-77
2022/12/23 09:13:12;;;;;;;49.77;20.27;;;5.30;93.90;;;;;;6153318;23;20720;-80
2022/12/23 09:15:52;;;;;;;43.87;19.10;;;5.30;93.80;;;;;;6153577;23;20508;-77
2022/12/23 09:18:20;;;;;;;48.50;20.20;;;5.40;93.90;;;;;;6154273;23;20183;-77
2022/12/23 09:20:48;;;;;;;45.87;19.23;;;5.40;93.80;;;;;;6154958;23;20184;-77
2022/12/23 09:23:17;;;;;;;47.95;21.90;;;5.50;93.80;;;;;;6153787;23;20391;-78
2022/12/23 09:25:45;;;;;;;44.27;19.73;;;5.50;93.80;;;;;;6153124;23;20228;-77
2022/12/23 09:28:15;;;;;;;45.07;20.53;;;5.50;93.70;;;;;;6153326;23;20174;-77
2022/12/23 09:30:43;;;;;;;51.60;20.60;;;5.50;93.70;;;;;;6154412;23;20640;-78
2022/12/23 09:33:11;;;;;;;47.73;19.77;;;5.60;93.60;;;;;;6154724;23;20197;-78
2022/12/23 09:35:40;;;;;;;47.13;19.87;;;5.60;93.60;;;;;;6153192;23;20631;-78
2022/12/23 09:38:09;;;;;;;45.77;20.83;;;5.60;93.60;;;;;;6153316;23;20543;-77
2022/12/23 09:40:45;;;;;;;49.77;19.60;;;5.70;93.60;;;;;;6153346;23;20175;-77
2022/12/23 09:43:28;;;;;;;42.03;18.80;;;5.70;93.50;;;;;;6154050;23;20222;-78
2022/12/23 09:46:07;;;;;;;45.60;19.33;;;5.70;93.50;;;;;;6077032;23;20179;-81
2022/12/23 09:48:41;;;;;;;47.97;22.13;;;5.70;93.40;;;;;;6150163;23;20814;-81
2022/12/23 09:51:14;;;;;;;51.03;21.37;;;5.70;93.30;;;;;;6152763;23;20528;-79
2022/12/23 09:54:28;;;;;;;58.63;23.20;;;5.70;93.30;;;;;;6154989;23;20248;-79
2022/12/23 09:57:00;;;;;;;52.27;21.67;;;5.70;93.30;;;;;;6153027;23;20498;-76
2022/12/23 09:59:42;;;;;;;52.60;21.37;;;5.70;93.30;;;;;;6154219;23;20202;-76
2022/12/23 10:02:23;;;;;;;45.57;21.37;;;5.80;93.30;;;;;;6156954;23;20605;-79
2022/12/23 10:05:03;;;;;;;54.57;23.13;;;5.80;93.30;;;;;;6155999;23;20592;-78
2022/12/23 10:07:37;;;;;;;52.03;22.63;;;5.80;93.20;;;;;;6156888;23;20158;-80
2022/12/23 10:10:13;;;;;;;54.70;21.97;;;5.90;93.10;;;;;;6154535;23;20168;-79
2022/12/23 10:12:48;;;;;;;51.43;22.50;;;5.90;93.20;;;;;;6153788;23;20195;-80
2022/12/23 10:15:24;;;;;;;52.40;22.30;;;6.00;93.10;;;;;;6151751;23;20495;-79
2022/12/23 10:18:11;;;;;;;48.37;21.53;;;6.10;93.20;;;;;;6154959;23;20163;-79
2022/12/23 10:20:47;;;;;;;53.77;23.90;;;6.10;93.10;;;;;;6155083;23;20202;-80
2022/12/23 10:23:35;;;;;;;50.40;22.17;;;6.20;93.10;;;;;;6154881;23;20163;-79
2022/12/23 10:26:12;;;;;;;47.37;22.40;;;6.30;93.30;;;;;;6154329;23;20180;-80
2022/12/23 10:28:43;;;;;;;50.10;21.33;;;6.40;93.30;;;;;;6155059;23;20190;-80
2022/12/23 10:31:19;;;;;;;51.07;20.90;;;6.50;93.20;;;;;;6153363;23;20503;-79
2022/12/23 10:34:16;;;;;;;52.87;22.17;;;6.60;93.40;;;;;;6155412;23;20207;-81
2022/12/23 10:36:54;;;;;;;53.60;21.30;;;6.60;93.40;;;;;;6155311;23;20536;-80
2022/12/23 10:39:37;;;;;;;48.43;20.93;;;6.70;93.40;;;;;;6151494;23;20175;-79
2022/12/23 10:42:16;;;;;;;45.27;21.23;;;6.80;93.40;;;;;;6153145;23;20532;-80
2022/12/23 10:44:59;;;;;;;46.13;20.27;;;6.90;93.30;;;;;;6154556;23;20160;-80
2022/12/23 10:47:47;;;;;;;48.13;20.13;;;6.90;93.00;;;;;;6154202;23;20171;-79
2022/12/23 10:50:32;;;;;;;49.80;21.80;;;6.90;92.90;;;;;;6153756;23;20163;-79
2022/12/23 10:53:06;;;;;;;48.93;21.13;;;7.00;93.00;;;;;;6154555;23;20164;-79
2022/12/23 10:55:38;;;;;;;49.33;21.10;;;7.00;92.80;;;;;;6154476;23;20525;-79
2022/12/23 10:58:14;;;;;;;53.73;23.00;;;7.00;92.80;;;;;;6154301;23;20444;-80
2022/12/23 11:00:48;;;;;;;47.77;21.60;;;7.10;92.80;;;;;;6153866;23;20200;-79
2022/12/23 11:03:22;;;;;;;49.53;21.97;;;7.10;92.80;;;;;;6154943;23;20550;-79
2022/12/23 11:05:52;;;;;;;43.17;19.07;;;7.20;92.80;;;;;;6155429;23;20165;-80
2022/12/23 11:08:28;;;;;;;46.57;20.47;;;7.30;92.60;;;;;;6153263;23;20180;-80
2022/12/23 11:10:56;;;;;;;40.87;20.17;;;7.30;92.70;;;;;;6151983;23;20548;-81
2022/12/23 11:13:36;;;;;;;48.93;21.53;;;7.30;92.40;;;;;;6154032;23;20176;-82
2022/12/23 11:16:29;;;;;;;47.00;20.47;;;7.40;92.40;;;;;;6153017;23;20531;-80
2022/12/23 11:19:01;;;;;;;46.93;19.40;;;7.50;92.30;;;;;;6125648;23;20177;-81
2022/12/23 11:21:31;;;;;;;46.97;20.20;;;7.50;92.40;;;;;;6151818;23;20165;-80
2022/12/23 11:24:16;;;;;;;52.08;23.52;;;7.60;92.30;;;;;;6152921;23;20760;-81
2022/12/23 11:26:50;;;;;;;49.07;20.60;;;7.60;92.50;;;;;;6153794;23;20163;-80
2022/12/23 11:29:25;;;;;;;50.63;21.73;;;7.60;92.30;;;;;;6153944;23;20665;-81
2022/12/23 11:32:16;;;;;;;46.50;20.37;;;7.60;92.10;;;;;;6152452;23;20152;-80
2022/12/23 11:34:47;;;;;;;45.57;21.07;;;7.70;92.20;;;;;;6154601;23;20177;-79
2022/12/23 11:37:31;;;;;;;51.13;22.73;;;7.70;92.10;;;;;;6153537;23;20192;-80
2022/12/23 11:40:00;;;;;;;50.73;20.80;;;7.80;92.00;;;;;;6153858;23;20211;-79
2022/12/23 11:42:30;;;;;;;48.47;21.73;;;7.80;91.90;;;;;;6151428;23;20284;-79
2022/12/23 11:45:00;;;;;;;46.00;20.17;;;7.80;92.00;;;;;;6154685;23;20161;-80
2022/12/23 11:47:34;;;;;;;48.27;21.47;;;7.80;91.90;;;;;;6154304;23;20173;-80
2022/12/23 11:50:29;;;;;;;45.50;20.63;;;7.90;91.90;;;;;;6153530;23;20211;-81
2022/12/23 11:53:15;;;;;;;46.17;20.90;;;8.00;92.00;;;;;;6154295;23;20194;-80
2022/12/23 11:55:48;;;;;;;48.07;19.97;;;8.10;92.00;;;;;;6152381;23;20220;-84
2022/12/23 11:58:21;;;;;;;47.03;22.07;;;8.10;91.90;;;;;;6154719;23;20161;-81
2022/12/23 12:00:55;;;;;;;52.17;22.88;;;8.10;91.70;;;;;;6153832;23;20879;-82
2022/12/23 12:03:27;;;;;;;58.50;23.07;;;8.20;91.80;;;;;;6153833;23;20207;-82
2022/12/23 12:06:03;;;;;;;44.03;22.37;;;8.20;91.60;;;;;;6154854;23;20617;-82
2022/12/23 12:08:35;;;;;;;49.23;21.27;;;8.30;91.50;;;;;;6151074;23;20156;-82
2022/12/23 12:11:11;;;;;;;47.13;21.87;;;8.30;91.50;;;;;;6153633;23;20169;-82
2022/12/23 12:13:44;;;;;;;48.73;21.97;;;8.40;91.70;;;;;;6153117;23;20382;-83
2022/12/23 12:16:31;;;;;;;48.03;20.83;;;8.40;91.60;;;;;;6152421;23;20375;-80
2022/12/23 12:19:04;;;;;;;47.80;22.77;;;8.40;91.30;;;;;;6153135;23;20191;-81
2022/12/23 12:21:38;;;;;;;56.13;22.73;;;8.50;91.10;;;;;;6153570;23;20161;-84
2022/12/23 12:24:17;;;;;;;53.37;22.73;;;8.50;90.80;;;;;;6153955;23;20164;-83
2022/12/23 12:26:50;;;;;;;51.22;23.73;;;8.50;90.70;;;;;;6153820;23;20386;-82
2022/12/23 12:29:27;;;;;;;49.43;22.83;;;8.50;90.70;;;;;;6153383;23;20160;-82
2022/12/23 12:31:58;;;;;;;45.87;22.23;;;8.50;90.80;;;;;;6154463;23;20211;-83
2022/12/23 12:34:42;;;;;;;54.97;23.23;;;8.50;90.80;;;;;;6153545;23;20180;-79
2022/12/23 12:37:21;;;;;;;48.37;21.73;;;8.60;90.80;;;;;;6153305;23;20460;-81
2022/12/23 12:39:54;;;;;;;50.70;22.63;;;8.60;90.70;;;;;;6154164;23;20156;-81
2022/12/23 12:42:30;;;;;;;48.00;21.50;;;8.60;90.80;;;;;;6152259;23;20172;-79
2022/12/23 12:45:16;;;;;;;46.87;22.80;;;8.60;90.60;;;;;;6150628;23;20168;-81
2022/12/23 12:47:56;;;;;;;51.60;24.27;;;8.60;90.50;;;;;;6154041;23;20157;-80
2022/12/23 12:50:54;;;;;;;53.47;23.37;;;8.60;90.70;;;;;;6078199;23;20248;-80
2022/12/23 12:53:25;;;;;;;47.13;22.40;;;8.60;90.50;;;;;;6150945;23;20208;-81
2022/12/23 12:56:00;;;;;;;54.90;22.43;;;8.60;90.60;;;;;;6150116;23;20513;-81
2022/12/23 12:58:29;;;;;;;58.93;22.93;;;8.50;90.50;;;;;;6153879;23;20230;-82
2022/12/23 13:01:21;;;;;;;53.77;24.13;;;8.50;90.50;;;;;;6154146;23;20204;-80
2022/12/23 13:04:24;;;;;;;52.37;23.57;;;8.60;90.70;;;;;;6153401;23;20199;-80
2022/12/23 13:06:59;;;;;;;52.17;23.20;;;8.60;90.80;;;;;;6151427;23;20210;-80
2022/12/23 13:09:40;;;;;;;57.60;23.60;;;8.60;90.80;;;;;;6151321;23;20187;-81
2022/12/23 13:12:23;;;;;;;54.53;23.87;;;8.50;90.80;;;;;;6154396;23;20510;-80
2022/12/23 13:15:10;;;;;;;53.70;23.90;;;8.50;90.80;;;;;;6151241;23;20513;-80
2022/12/23 13:17:44;;;;;;;52.93;23.80;;;8.50;90.90;;;;;;6078033;23;20239;-81
2022/12/23 13:20:31;;;;;;;51.83;23.73;;;8.50;90.80;;;;;;6153440;23;20199;-81
2022/12/23 13:23:06;;;;;;;54.90;23.13;;;8.60;90.90;;;;;;6154280;23;20219;-79
2022/12/23 13:26:01;;;;;;;55.00;23.43;;;8.60;91.00;;;;;;6153383;23;20640;-81
2022/12/23 13:28:38;;;;;;;54.30;23.37;;;8.70;91.10;;;;;;6153462;23;20215;-80
2022/12/23 13:31:15;;;;;;;59.37;26.23;;;8.70;91.40;;;;;;6151878;23;20268;-80
2022/12/23 13:33:52;;;;;;;53.17;23.93;;;8.70;91.00;;;;;;6151232;23;20248;-80
2022/12/23 13:36:41;;;;;;;56.10;26.77;;;8.70;91.00;;;;;;6152869;23;20403;-80
2022/12/23 13:39:33;;;;;;;54.03;24.33;;;8.70;91.00;;;;;;6152403;23;20168;-80
2022/12/23 13:42:04;;;;;;;49.43;23.40;;;8.70;90.90;;;;;;6155301;23;20555;-80
2022/12/23 13:44:35;;;;;;;49.33;21.53;;;8.70;90.80;;;;;;6157200;23;20161;-80
2022/12/23 13:47:15;;;;;;;50.73;23.37;;;8.60;90.80;;;;;;6155749;23;20163;-80